Time;durP1;ratioP1;P1;durP2;ratioP2;P2;SDS_P1;SDS_P2;PMS_P1;PMS_P2;Temp;Humidity;BMP_temperature;BMP_pressure;BME280_temperature;BME280_humidity;BME280_pressure;Samples;Min_cycle;Max_cycle;Signal;HPM_P1;HPM_P2
2022/08/05 00:01:44;;;;;;;15.95;10.18;;;;;;;20.14;100.00;95289.31;5114763;27;20088;-76
2022/08/05 00:04:09;;;;;;;16.02;10.48;;;;;;;20.13;100.00;95298.44;5133518;27;20039;-77
2022/08/05 00:06:35;;;;;;;17.35;10.00;;;;;;;20.12;100.00;95291.53;5130714;27;20481;-77
2022/08/05 00:09:01;;;;;;;17.27;9.90;;;;;;;20.01;100.00;95293.09;5128254;27;20058;-76
2022/08/05 00:11:27;;;;;;;14.65;9.82;;;;;;;20.05;100.00;95288.66;5113249;27;20124;-76
2022/08/05 00:13:53;;;;;;;13.98;9.27;;;;;;;19.85;100.00;95280.41;5133943;27;20065;-76
2022/08/05 00:16:19;;;;;;;15.48;9.07;;;;;;;19.82;100.00;95283.75;5121357;27;20047;-76
2022/08/05 00:18:46;;;;;;;14.40;9.02;;;;;;;19.81;100.00;95282.22;5127877;27;20039;-76
2022/08/05 00:21:14;;;;;;;15.20;9.23;;;;;;;19.85;100.00;95288.44;5133154;27;20050;-77
2022/08/05 00:23:41;;;;;;;16.45;9.30;;;;;;;19.83;100.00;95285.31;5133156;27;20072;-77
2022/08/05 00:26:06;;;;;;;15.48;8.85;;;;;;;19.86;100.00;95271.28;5126308;27;20070;-76
2022/08/05 00:28:32;;;;;;;14.07;9.02;;;;;;;19.72;100.00;95273.50;5129862;27;20070;-76
2022/08/05 00:30:59;;;;;;;13.68;8.45;;;;;;;19.72;100.00;95268.16;5132399;27;20084;-76
2022/08/05 00:33:24;;;;;;;13.05;9.07;;;;;;;19.64;100.00;95271.72;5132612;27;20049;-76
2022/08/05 00:35:49;;;;;;;12.10;8.25;;;;;;;19.64;100.00;95271.72;5128301;27;20114;-76
2022/08/05 00:38:15;;;;;;;12.80;8.43;;;;;;;19.63;100.00;95264.84;5130679;27;20042;-76
2022/08/05 00:40:55;;;;;;;13.57;8.07;;;;;;;19.52;100.00;95275.94;5113243;27;20412;-76
2022/08/05 00:43:21;;;;;;;13.43;8.20;;;;;;;19.46;100.00;95271.91;5131730;27;20485;-76
2022/08/05 00:45:48;;;;;;;11.35;7.53;;;;;;;19.49;100.00;95275.81;5117987;27;20039;-76
2022/08/05 00:48:17;;;;;;;12.90;8.07;;;;;;;19.48;100.00;95269.72;5114955;27;20040;-76
2022/08/05 00:50:45;;;;;;;12.07;8.20;;;;;;;19.44;100.00;95271.47;5127101;27;20039;-76
2022/08/05 00:53:10;;;;;;;12.43;7.47;;;;;;;19.34;100.00;95269.25;5131651;27;20070;-76
2022/08/05 00:55:36;;;;;;;11.45;7.38;;;;;;;19.38;100.00;95270.16;5126964;27;20089;-77
2022/08/05 00:58:01;;;;;;;11.25;7.38;;;;;;;19.30;100.00;95268.34;5112225;27;20064;-77
2022/08/05 01:00:28;;;;;;;10.38;7.35;;;;;;;19.31;100.00;95272.56;5131988;27;20043;-77
2022/08/05 01:02:55;;;;;;;8.32;6.78;;;;;;;19.25;100.00;95261.34;5125286;27;20081;-77
2022/08/05 01:05:21;;;;;;;11.20;6.82;;;;;;;19.31;100.00;95264.56;5126263;27;20031;-77
2022/08/05 01:07:46;;;;;;;10.73;7.15;;;;;;;19.26;100.00;95272.78;5117916;27;20310;-77
2022/08/05 01:10:15;;;;;;;10.85;7.07;;;;;;;19.24;100.00;95259.78;5117787;27;20113;-77
2022/08/05 01:12:45;;;;;;;9.38;6.72;;;;;;;19.23;100.00;95268.13;5104095;27;20031;-77
2022/08/05 01:15:15;;;;;;;9.35;6.45;;;;;;;19.13;100.00;95270.09;5128901;27;20043;-77
2022/08/05 01:17:48;;;;;;;10.65;6.63;;;;;;;19.23;100.00;95268.13;5131640;27;20479;-77
2022/08/05 01:20:29;;;;;;;8.93;6.57;;;;;;;19.12;100.00;95268.53;5128442;27;20039;-77
2022/08/05 01:23:00;;;;;;;10.45;6.28;;;;;;;19.22;100.00;95275.31;5131050;27;20042;-77
2022/08/05 01:25:44;;;;;;;9.10;6.65;;;;;;;19.23;100.00;95271.56;5124675;27;20043;-77
2022/08/05 01:28:16;;;;;;;12.50;6.35;;;;;;;19.20;100.00;95264.97;5128909;27;20053;-77
2022/08/05 01:30:53;;;;;;;8.55;5.85;;;;;;;19.27;100.00;95277.03;5130855;27;20046;-77
2022/08/05 01:33:28;;;;;;;11.35;6.70;;;;;;;19.21;100.00;95277.22;5112945;27;20073;-76
2022/08/05 01:35:58;;;;;;;9.70;6.13;;;;;;;19.25;100.00;95269.34;5102696;27;20050;-77
2022/08/05 01:38:25;;;;;;;8.90;6.22;;;;;;;19.18;100.00;95272.53;5110464;27;20042;-77
2022/08/05 01:40:52;;;;;;;9.40;6.30;;;;;;;19.16;100.00;95274.75;5129523;27;20031;-76
2022/08/05 01:43:20;;;;;;;9.05;6.00;;;;;;;19.23;100.00;95262.78;5128569;27;20062;-76
2022/08/05 01:45:45;;;;;;;8.48;6.18;;;;;;;19.31;100.00;95264.56;5129110;27;20047;-77
2022/08/05 01:48:12;;;;;;;10.48;7.15;;;;;;;19.10;100.00;95265.41;5110899;27;20108;-77
2022/08/05 01:50:39;;;;;;;8.60;5.90;;;;;;;19.13;100.00;95259.41;5122077;27;20434;-77
2022/08/05 01:53:13;;;;;;;8.85;6.28;;;;;;;19.06;100.00;95267.19;5130784;27;20039;-76
2022/08/05 01:55:42;;;;;;;;;;;;;;;19.01;100.00;95267.41;5123253;27;20043;-77
2022/08/05 01:58:09;;;;;;;11.45;5.90;;;;;;;19.00;100.00;95276.50;5119575;27;20076;-77
2022/08/05 02:00:38;;;;;;;7.38;5.47;;;;;;;19.13;100.00;95253.31;5126307;27;20413;-77
2022/08/05 02:03:12;;;;;;;8.75;5.78;;;;;;;19.25;100.00;95260.56;5130697;27;20043;-77
2022/08/05 02:05:39;;;;;;;8.53;5.73;;;;;;;19.27;100.00;95263.69;5127869;27;20039;-77
2022/08/05 02:08:05;;;;;;;7.80;5.45;;;;;;;19.28;100.00;95265.22;5126697;27;20103;-77
2022/08/05 02:11:07;;;;;;;7.57;5.45;;;;;;;19.21;100.00;95271.88;5109918;27;20043;-77
2022/08/05 02:13:39;;;;;;;8.73;5.68;;;;;;;19.14;100.00;95271.66;5110827;27;20047;-76
2022/08/05 02:16:13;;;;;;;8.43;5.40;;;;;;;19.17;100.00;95270.97;5126280;27;20119;-77
2022/08/05 02:18:46;;;;;;;;;;;;;;;19.10;100.00;95270.75;5126551;27;20050;-77
2022/08/05 02:21:16;;;;;;;8.20;5.75;;;;;;;19.06;100.00;95264.50;5127533;27;19923;-77
2022/08/05 02:23:47;;;;;;;10.20;5.78;;;;;;;19.03;100.00;95265.16;5112882;27;20046;-77
2022/08/05 02:26:18;;;;;;;8.25;5.60;;;;;;;19.11;100.00;95266.97;5125735;27;20073;-77
2022/08/05 02:28:45;;;;;;;8.30;5.82;;;;;;;19.13;100.00;95259.41;5126797;27;20043;-77
2022/08/05 02:31:16;;;;;;;8.52;5.68;;;;;;;19.05;100.00;95257.63;5129594;27;20058;-77
2022/08/05 02:33:49;;;;;;;8.45;5.80;;;;;;;19.07;100.00;95259.97;5127620;27;20039;-77
2022/08/05 02:36:18;;;;;;;8.05;5.57;;;;;;;19.11;100.00;95271.53;5127425;27;20067;-77
2022/08/05 02:38:48;;;;;;;7.63;5.78;;;;;;;19.19;100.00;95263.44;5126190;27;20050;-77
2022/08/05 02:41:16;;;;;;;8.35;5.70;;;;;;;19.26;100.00;95265.56;5127959;27;20134;-77
2022/08/05 02:43:43;;;;;;;7.70;5.97;;;;;;;19.12;100.00;95263.22;5111455;27;20103;-77
2022/08/05 02:46:11;;;;;;;13.13;5.85;;;;;;;19.11;100.00;95266.97;5127537;27;20046;-77
2022/08/05 02:48:37;;;;;;;9.88;5.97;;;;;;;19.05;100.00;95268.31;5125532;27;20497;-77
2022/08/05 02:51:04;;;;;;;9.15;5.95;;;;;;;19.04;100.00;95261.41;5128229;27;20389;-77
2022/08/05 02:53:31;;;;;;;9.73;6.05;;;;;;;19.03;100.00;95265.16;5123822;27;20035;-77
2022/08/05 02:55:57;;;;;;;8.57;5.80;;;;;;;19.00;100.00;95265.84;5121372;27;20554;-77
2022/08/05 02:58:24;;;;;;;11.13;6.10;;;;;;;19.00;100.00;95260.50;5102604;27;20438;-77
2022/08/05 03:00:53;;;;;;;8.63;5.82;;;;;;;19.00;100.00;95266.59;5128120;27;20035;-77
2022/08/05 03:03:19;;;;;;;7.20;5.50;;;;;;;18.95;100.00;95263.34;5129410;27;20096;-76
2022/08/05 03:05:49;;;;;;;8.00;5.70;;;;;;;18.82;100.00;95260.63;5128369;27;20043;-77
2022/08/05 03:08:16;;;;;;;9.82;5.65;;;;;;;18.71;100.00;95259.47;5122672;27;20489;-76
2022/08/05 03:10:42;;;;;;;8.82;5.35;;;;;;;18.58;100.00;95256.00;5123240;27;20062;-77
2022/08/05 03:13:15;;;;;;;8.00;5.82;;;;;;;18.64;100.00;95264.56;5128989;27;20039;-76
2022/08/05 03:15:45;;;;;;;7.57;5.97;;;;;;;18.63;100.00;95260.34;5129841;27;20067;-76
2022/08/05 03:18:12;;;;;;;10.07;6.15;;;;;;;18.64;100.00;95248.56;5128546;27;20050;-76
2022/08/05 03:20:38;;;;;;;11.07;5.88;;;;;;;18.61;100.00;95249.22;5126295;27;20559;-77
2022/08/05 03:23:08;;;;;;;9.05;6.07;;;;;;;18.52;100.00;95247.41;5125845;27;20038;-76
2022/08/05 03:25:36;;;;;;;7.50;5.82;;;;;;;18.41;100.00;95248.91;5101645;27;20103;-76
2022/08/05 03:28:03;;;;;;;9.13;5.95;;;;;;;18.45;100.00;95251.72;5128300;27;20143;-76
2022/08/05 03:30:33;;;;;;;10.57;6.38;;;;;;;18.50;100.00;95249.63;5124223;27;20678;-76
2022/08/05 03:33:00;;;;;;;7.85;5.82;;;;;;;18.38;100.00;95246.91;5128368;27;20095;-77
2022/08/05 03:35:27;;;;;;;7.93;5.80;;;;;;;18.38;100.00;95252.22;5129689;27;20549;-76
2022/08/05 03:37:56;;;;;;;10.40;7.05;;;;;;;18.35;100.00;95247.56;5108821;28;20039;-77
2022/08/05 03:40:22;;;;;;;8.23;6.03;;;;;;;18.35;100.00;95252.88;5127708;28;20044;-76
2022/08/05 03:42:47;;;;;;;7.93;5.93;;;;;;;18.28;100.00;95247.28;5120025;28;20092;-76
2022/08/05 03:45:13;;;;;;;7.40;5.97;;;;;;;18.23;100.00;95252.81;5124512;28;20103;-76
2022/08/05 03:47:38;;;;;;;7.95;6.28;;;;;;;18.11;100.00;95254.28;5126469;28;20059;-76
2022/08/05 03:50:05;;;;;;;13.23;5.80;;;;;;;18.23;100.00;95260.78;5127853;28;20428;-77
2022/08/05 03:52:38;;;;;;;8.57;5.88;;;;;;;18.16;100.00;95246.13;5122238;28;20051;-77
2022/08/05 03:55:20;;;;;;;11.27;6.13;;;;;;;18.12;100.00;95245.22;5127984;28;20039;-77
2022/08/05 03:57:50;;;;;;;8.43;5.82;;;;;;;18.14;100.00;95248.31;5122745;28;20035;-77
2022/08/05 04:00:16;;;;;;;9.88;5.93;;;;;;;18.04;100.00;95243.38;5109490;28;20047;-77
2022/08/05 04:02:47;;;;;;;8.88;5.80;;;;;;;18.02;100.00;95253.56;5129115;28;20050;-77
2022/08/05 04:05:14;;;;;;;8.52;5.97;;;;;;;17.99;100.00;95246.25;5127558;28;20079;-76
2022/08/05 04:07:40;;;;;;;13.57;5.97;;;;;;;18.09;100.00;95251.19;5125188;28;20039;-76
2022/08/05 04:10:07;;;;;;;8.55;5.35;;;;;;;18.14;100.00;95247.53;5108604;28;20108;-77
2022/08/05 04:12:34;;;;;;;8.75;5.57;;;;;;;18.10;100.00;95247.44;5119322;28;20523;-77
2022/08/05 04:14:59;;;;;;;8.05;5.90;;;;;;;18.08;100.00;95241.63;5129111;28;20055;-76
2022/08/05 04:17:25;;;;;;;7.25;5.57;;;;;;;18.10;100.00;95251.94;5126676;28;20042;-76
2022/08/05 04:19:51;;;;;;;9.52;5.95;;;;;;;18.03;100.00;95252.47;5110589;28;20031;-76
2022/08/05 04:22:16;;;;;;;7.53;5.80;;;;;;;18.05;100.00;95252.94;5128036;28;20047;-76
2022/08/05 04:24:44;;;;;;;8.75;5.78;;;;;;;18.09;100.00;95256.50;5130203;28;20038;-77
2022/08/05 04:27:11;;;;;;;7.25;5.65;;;;;;;18.02;100.00;95256.25;5128539;28;20114;-76
2022/08/05 04:29:37;;;;;;;7.07;5.85;;;;;;;18.02;100.00;95261.56;5121207;28;20100;-76
2022/08/05 04:32:03;;;;;;;8.82;6.35;;;;;;;17.92;100.00;95267.28;5124188;28;20032;-76
2022/08/05 04:34:28;;;;;;;8.73;5.95;;;;;;;18.02;100.00;95298.84;5128738;28;20043;-77
2022/08/05 04:36:54;;;;;;;7.25;5.43;;;;;;;18.22;100.00;95307.19;5106395;28;20036;-77
2022/08/05 04:39:20;;;;;;;8.68;5.50;;;;;;;18.75;100.00;95308.38;5119707;28;20044;-77
2022/08/05 04:41:46;;;;;;;72.97;39.85;;;;;;;19.32;100.00;95314.16;5109492;28;20519;-77
2022/08/05 04:44:12;;;;;;;85.32;42.85;;;;;;;19.57;100.00;95317.66;5123949;27;20043;-77
2022/08/05 04:46:37;;;;;;;70.22;35.80;;;;;;;19.72;100.00;95322.34;5126065;27;20096;-77
2022/08/05 04:49:04;;;;;;;50.13;27.65;;;;;;;20.11;100.00;95310.56;5113578;27;20031;-77
2022/08/05 04:51:30;;;;;;;44.53;27.25;;;;;;;20.31;100.00;95319.56;5113166;27;20035;-77
2022/08/05 04:53:56;;;;;;;43.88;24.80;;;;;;;20.42;99.49;95315.31;5132316;27;20039;-76
2022/08/05 04:56:21;;;;;;;35.50;18.70;;;;;;;20.59;97.79;95317.72;5155893;27;20023;-77
2022/08/05 04:58:47;;;;;;;27.85;13.40;;;;;;;20.72;97.79;95315.06;5151083;27;20083;-77
2022/08/05 05:01:12;;;;;;;20.90;9.45;;;;;;;20.92;94.24;95316.75;5140716;27;20088;-76
2022/08/05 05:03:38;;;;;;;12.73;8.15;;;;;;;21.00;93.87;95320.41;5151436;27;20130;-76
2022/08/05 05:06:03;;;;;;;11.65;6.43;;;;;;;20.98;92.89;95313.84;5145835;27;20062;-76
2022/08/05 05:08:29;;;;;;;11.80;5.43;;;;;;;21.08;91.88;95313.38;5142531;27;20031;-76
2022/08/05 05:10:54;;;;;;;8.88;5.03;;;;;;;21.10;92.32;95316.47;5150635;27;20023;-77
2022/08/05 05:13:20;;;;;;;7.85;5.32;;;;;;;21.28;91.07;95323.06;5155453;27;20043;-76
2022/08/05 05:15:46;;;;;;;9.38;5.47;;;;;;;21.37;89.81;95314.09;5154357;27;20331;-77
2022/08/05 05:18:15;;;;;;;10.50;5.40;;;;;;;21.45;90.91;95321.22;5140557;27;20031;-77
2022/08/05 05:20:45;;;;;;;8.45;5.28;;;;;;;21.49;89.07;95322.06;5139348;27;20031;-76
2022/08/05 05:23:12;;;;;;;7.75;5.28;;;;;;;21.58;89.23;95328.06;5153823;27;20055;-77
2022/08/05 05:25:39;;;;;;;7.32;4.70;;;;;;;21.65;91.25;95335.50;5134921;27;20075;-77
2022/08/05 05:28:05;;;;;;;7.43;4.82;;;;;;;21.78;88.59;95333.53;5158701;27;20031;-77
2022/08/05 05:30:31;;;;;;;7.18;4.78;;;;;;;22.02;86.42;95331.78;5151838;27;20054;-77
2022/08/05 05:32:56;;;;;;;6.78;4.95;;;;;;;22.21;85.48;95329.16;5158526;27;20042;-77
2022/08/05 05:35:22;;;;;;;6.85;4.38;;;;;;;22.34;84.61;95337.09;5157548;27;20038;-77
2022/08/05 05:37:52;;;;;;;6.03;4.40;;;;;;;22.40;85.59;95335.72;5150810;27;20031;-77
2022/08/05 05:40:21;;;;;;;6.60;4.78;;;;;;;22.64;81.55;95340.84;5135904;27;20027;-76
2022/08/05 05:42:47;;;;;;;6.82;4.95;;;;;;;22.72;81.76;95336.41;5139475;27;20422;-76
2022/08/05 05:45:12;;;;;;;7.57;4.70;;;;;;;22.87;81.60;95342.06;5130952;27;20484;-76
2022/08/05 05:47:39;;;;;;;8.05;4.90;;;;;;;23.06;79.00;95339.38;5113743;27;20110;-76
2022/08/05 05:50:09;;;;;;;6.10;4.45;;;;;;;23.33;78.29;95337.63;5126082;27;20043;-76
2022/08/05 05:52:34;;;;;;;9.85;5.15;;;;;;;23.65;76.00;95337.41;5130831;27;20039;-77
2022/08/05 05:55:07;;;;;;;5.25;4.15;;;;;;;23.79;74.21;95333.38;5110163;27;20039;-78
2022/08/05 05:57:34;;;;;;;5.80;4.40;;;;;;;23.91;73.50;95338.63;5102863;27;20035;-77
2022/08/05 06:00:00;;;;;;;5.95;4.50;;;;;;;24.07;71.17;95340.41;5130115;27;20035;-78
2022/08/05 06:02:25;;;;;;;5.65;4.20;;;;;;;24.24;70.38;95344.47;5131681;27;20041;-79
2022/08/05 06:04:51;;;;;;;6.25;4.32;;;;;;;24.21;70.48;95335.25;5127534;27;20118;-77
2022/08/05 06:07:16;;;;;;;8.98;4.80;;;;;;;24.17;71.42;95337.09;5123514;27;20047;-77
2022/08/05 06:09:42;;;;;;;5.13;4.00;;;;;;;24.24;71.39;95334.50;5108722;27;20067;-77
2022/08/05 06:12:07;;;;;;;6.43;4.30;;;;;;;24.50;68.59;95332.97;5107645;27;20122;-78
2022/08/05 06:14:33;;;;;;;6.82;4.28;;;;;;;24.49;68.74;95342.16;5131340;27;20035;-78
2022/08/05 06:16:59;;;;;;;7.05;4.13;;;;;;;24.40;69.55;95337.03;5132863;27;20050;-78
2022/08/05 06:19:28;;;;;;;5.70;4.40;;;;;;;24.21;69.54;95335.25;5130334;27;20032;-79
2022/08/05 06:21:53;;;;;;;7.57;4.10;;;;;;;24.39;68.46;95341.66;5109140;28;20039;-78
2022/08/05 06:24:18;;;;;;;5.32;4.03;;;;;;;24.52;66.79;95338.75;5110515;27;20043;-82
2022/08/05 06:26:44;;;;;;;11.57;5.25;;;;;;;24.64;66.78;95335.06;5129612;27;20039;-80
2022/08/05 06:29:10;;;;;;;6.80;4.28;;;;;;;24.63;67.47;95334.31;5123512;27;20036;-80
2022/08/05 06:31:36;;;;;;;6.95;4.60;;;;;;;24.67;66.47;95329.75;5129573;27;20576;-81
2022/08/05 06:34:02;;;;;;;8.00;3.95;;;;;;;24.80;65.92;95337.59;5109214;27;20035;-78
2022/08/05 06:36:27;;;;;;;5.10;3.92;;;;;;;24.72;66.48;95337.50;5110134;27;20073;-79
2022/08/05 06:38:53;;;;;;;6.82;3.95;;;;;;;24.90;67.01;95347.72;5112543;27;20035;-79
2022/08/05 06:41:20;;;;;;;5.13;4.15;;;;;;;25.17;65.35;95339.56;5126350;27;20039;-80
2022/08/05 06:43:46;;;;;;;8.57;4.65;;;;;;;25.18;65.57;95330.34;5129559;27;20050;-78
2022/08/05 06:46:11;;;;;;;7.22;4.53;;;;;;;25.25;64.88;95341.19;5121747;27;20039;-79
2022/08/05 06:48:37;;;;;;;9.25;4.70;;;;;;;25.64;62.85;95351.59;5126176;27;20047;-79
2022/08/05 06:51:03;;;;;;;11.55;4.50;;;;;;;25.80;61.71;95351.38;5126347;27;20047;-77
2022/08/05 06:53:29;;;;;;;7.47;4.40;;;;;;;25.85;61.20;95344.88;5110788;27;20043;-79
2022/08/05 06:55:57;;;;;;;11.98;4.38;;;;;;;25.81;61.97;95350.22;5131172;27;20042;-77
2022/08/05 06:58:22;;;;;;;7.80;4.55;;;;;;;25.75;62.30;95347.09;5127285;27;20043;-78
2022/08/05 07:00:48;;;;;;;9.43;4.85;;;;;;;25.81;61.47;95354.84;5122734;27;20610;-78
2022/08/05 07:03:13;;;;;;;6.32;4.32;;;;;;;25.86;60.59;95351.78;5125399;27;20039;-78
2022/08/05 07:05:38;;;;;;;6.10;4.60;;;;;;;25.93;60.81;95352.66;5117561;27;20121;-78
2022/08/05 07:08:05;;;;;;;5.50;4.40;;;;;;;25.89;61.02;95356.47;5119567;27;20574;-78
2022/08/05 07:10:30;;;;;;;7.18;4.50;;;;;;;25.89;60.79;95356.47;5101734;27;20389;-80
2022/08/05 07:18:24;;;;;;;9.48;4.60;;;;;;;26.01;60.59;95358.88;5120884;27;20043;-80
2022/08/05 07:20:50;;;;;;;6.88;4.60;;;;;;;25.98;60.96;95370.41;5123887;27;20035;-81
2022/08/05 07:23:15;;;;;;;7.00;4.72;;;;;;;25.94;60.95;95380.38;5099524;27;20050;-77
2022/08/05 07:25:41;;;;;;;8.20;4.65;;;;;;;25.83;61.99;95384.88;5101592;27;20035;-79
2022/08/05 07:28:07;;;;;;;8.00;4.78;;;;;;;25.89;61.53;95383.44;5118430;27;20424;-79
2022/08/05 07:30:34;;;;;;;10.90;5.10;;;;;;;25.97;60.96;95390.41;5127544;27;20046;-79
2022/08/05 07:33:04;;;;;;;7.10;4.90;;;;;;;25.88;61.51;95392.66;5124197;27;20690;-78
2022/08/05 07:35:30;;;;;;;9.05;5.07;;;;;;;25.92;61.65;95404.25;5121536;27;20050;-83
2022/08/05 07:37:55;;;;;;;10.52;5.40;;;;;;;25.82;62.68;95399.53;5108724;28;20039;-78
2022/08/05 07:40:21;;;;;;;6.88;4.90;;;;;;;25.75;62.54;95406.38;5105620;28;20063;-78
2022/08/05 07:42:48;;;;;;;11.23;5.10;;;;;;;25.84;62.21;95408.00;5099203;28;20040;-78
2022/08/05 07:45:14;;;;;;;6.20;4.90;;;;;;;25.72;62.33;95409.81;5117719;28;20131;-78
2022/08/05 07:47:40;;;;;;;7.90;5.00;;;;;;;25.68;63.31;95405.56;5128089;28;20118;-84
2022/08/05 07:50:07;;;;;;;10.80;5.15;;;;;;;25.70;63.40;95414.81;5122498;28;20044;-81
2022/08/05 07:52:38;;;;;;;8.73;5.03;;;;;;;25.79;63.48;95413.72;5123564;28;20073;-84
2022/08/05 07:55:04;;;;;;;7.13;4.95;;;;;;;25.82;62.79;95426.50;5101255;28;20109;-79
2022/08/05 07:57:30;;;;;;;8.57;5.80;;;;;;;25.75;63.96;95427.94;5126402;28;20047;-82
2022/08/05 07:59:55;;;;;;;8.38;5.20;;;;;;;25.70;64.13;95436.38;5127313;28;20404;-77
2022/08/05 08:02:25;;;;;;;12.05;6.45;;;;;;;25.67;62.78;95442.47;5115898;28;20031;-80
2022/08/05 08:04:52;;;;;;;8.85;5.75;;;;;;;25.83;62.42;95449.56;5108441;28;20039;-77
2022/08/05 08:07:17;;;;;;;10.27;5.63;;;;;;;25.82;62.63;95453.44;5118597;28;20039;-82
2022/08/05 08:09:43;;;;;;;9.25;6.10;;;;;;;25.69;60.92;95451.00;5128721;28;20035;-80
2022/08/05 08:12:09;;;;;;;11.82;6.20;;;;;;;25.65;61.97;95460.94;5108530;28;20094;-79
2022/08/05 08:14:35;;;;;;;8.52;6.28;;;;;;;25.61;61.74;95457.44;5104551;28;22122;-78
2022/08/05 08:17:00;;;;;;;14.30;6.10;;;;;;;25.66;61.36;95454.44;5115804;27;20042;-78
2022/08/05 08:19:26;;;;;;;12.77;6.45;;;;;;;25.61;60.84;95454.75;5128927;27;20851;-78
2022/08/05 08:21:51;;;;;;;10.90;6.53;;;;;;;25.65;60.05;95477.13;5107409;27;20046;-78
2022/08/05 08:24:17;;;;;;;13.20;6.75;;;;;;;25.62;60.73;95459.00;5122942;27;20416;-78
2022/08/05 08:26:42;;;;;;;10.60;6.47;;;;;;;25.73;60.30;95476.06;5126614;27;20032;-77
2022/08/05 08:29:08;;;;;;;15.52;6.60;;;;;;;25.73;59.40;95478.75;5100561;27;20135;-77
2022/08/05 08:31:33;;;;;;;15.73;7.30;;;;;;;25.59;58.39;95473.97;5111689;27;20092;-78
2022/08/05 08:33:59;;;;;;;10.00;6.63;;;;;;;25.63;58.70;95479.41;5125308;27;20571;-77
2022/08/05 08:36:24;;;;;;;10.15;6.35;;;;;;;25.81;59.05;95481.53;5128253;27;20107;-77
2022/08/05 08:38:53;;;;;;;11.10;7.05;;;;;;;25.72;59.16;95487.97;5129059;27;20602;-77
2022/08/05 08:41:21;;;;;;;9.75;7.10;;;;;;;25.81;59.72;95489.63;5122494;27;20043;-77
2022/08/05 08:43:49;;;;;;;10.98;7.18;;;;;;;25.84;59.42;95494.25;5096087;27;20073;-77
2022/08/05 08:46:16;;;;;;;12.27;7.10;;;;;;;25.73;59.18;95500.31;5116000;27;20039;-76
2022/08/05 08:48:45;;;;;;;11.95;7.82;;;;;;;25.72;59.31;95504.16;5120309;27;20039;-77
2022/08/05 08:51:11;;;;;;;13.88;7.82;;;;;;;25.65;59.18;95522.94;5120406;27;20043;-77
2022/08/05 08:53:37;;;;;;;13.13;7.70;;;;;;;25.70;59.89;95511.03;5113743;27;20043;-77
2022/08/05 08:56:04;;;;;;;11.38;7.88;;;;;;;25.64;59.99;95507.91;5118907;27;20523;-77
2022/08/05 08:58:30;;;;;;;16.40;8.43;;;;;;;25.64;60.37;95529.44;5127889;27;20036;-77
2022/08/05 09:00:56;;;;;;;20.33;8.43;;;;;;;25.60;59.34;95517.84;5130445;27;20060;-77
2022/08/05 09:03:23;;;;;;;12.48;8.48;;;;;;;25.56;59.80;95527.84;5132358;27;20043;-77
2022/08/05 09:05:49;;;;;;;12.27;8.63;;;;;;;25.61;60.34;95530.19;5126580;27;20058;-77
2022/08/05 09:08:16;;;;;;;18.58;9.13;;;;;;;25.63;58.46;95532.50;5122729;27;20489;-77
2022/08/05 09:10:43;;;;;;;12.88;8.63;;;;;;;25.66;59.03;95532.56;5102464;27;20087;-79
2022/08/05 09:13:13;;;;;;;14.32;8.80;;;;;;;25.72;58.81;95524.94;5129623;27;20051;-79
2022/08/05 09:15:38;;;;;;;16.80;8.80;;;;;;;25.72;59.36;95536.50;5128619;27;20514;-80
2022/08/05 09:18:07;;;;;;;18.90;9.32;;;;;;;25.69;58.41;95541.84;5121516;27;20047;-82
2022/08/05 09:20:33;;;;;;;11.25;8.27;;;;;;;25.81;61.24;95538.13;5111686;27;20046;-80
2022/08/05 09:23:10;;;;;;;15.18;8.68;;;;;;;25.83;59.06;95543.91;5133398;27;20042;-78
2022/08/05 09:25:38;;;;;;;11.20;8.07;;;;;;;26.01;58.69;95542.22;5101790;27;20047;-78
2022/08/05 09:28:16;;;;;;;13.82;9.10;;;;;;;26.08;59.22;95547.69;5126274;27;20066;-78
2022/08/05 09:30:53;;;;;;;15.30;8.05;;;;;;;26.07;60.45;95543.44;5121994;27;20039;-78
2022/08/05 09:33:20;;;;;;;13.90;9.20;;;;;;;26.16;61.21;95542.38;5122321;27;20504;-78
2022/08/05 09:36:03;;;;;;;20.20;9.32;;;;;;;26.24;58.36;95549.41;5132194;27;20420;-77
2022/08/05 09:38:30;;;;;;;16.27;8.93;;;;;;;26.35;59.12;95549.50;5125248;27;20492;-78
2022/08/05 09:41:10;;;;;;;21.38;9.10;;;;;;;26.65;57.43;95541.31;5124072;27;20040;-78
2022/08/05 09:43:38;;;;;;;22.05;8.20;;;;;;;26.67;58.69;95540.94;5112510;27;20039;-79
2022/08/05 09:46:10;;;;;;;14.48;8.25;;;;;;;26.53;58.69;95536.19;5107104;27;20454;-77
2022/08/05 09:48:37;;;;;;;11.88;8.00;;;;;;;26.70;56.59;95543.69;5121003;27;20051;-77
2022/08/05 09:51:08;;;;;;;16.83;9.00;;;;;;;26.82;56.60;95544.53;5127804;27;20040;-78
2022/08/05 09:53:48;;;;;;;17.95;8.82;;;;;;;26.88;56.27;95537.66;5119625;27;20031;-78
2022/08/05 09:56:23;;;;;;;18.40;8.20;;;;;;;27.35;54.72;95537.97;5132366;27;20054;-80
2022/08/05 09:59:10;;;;;;;9.88;7.65;;;;;;;27.53;55.19;95548.88;5132841;27;20039;-78
2022/08/05 10:01:40;;;;;;;12.73;7.97;;;;;;;27.76;53.85;95541.28;5106366;27;20111;-79
2022/08/05 10:04:09;;;;;;;18.17;8.15;;;;;;;27.46;52.88;95539.59;5128159;27;20051;-78
2022/08/05 10:06:35;;;;;;;19.23;8.52;;;;;;;27.46;53.25;95550.41;5108681;27;20039;-81
2022/08/05 10:09:10;;;;;;;29.15;8.52;;;;;;;27.93;53.37;95544.41;5113905;27;20084;-78
2022/08/05 10:11:36;;;;;;;13.70;8.30;;;;;;;27.88;52.67;95553.66;5118969;27;20043;-82
2022/08/05 10:14:23;;;;;;;14.02;8.40;;;;;;;28.04;52.27;95545.25;5100200;27;20492;-82
2022/08/05 10:16:50;;;;;;;17.40;9.65;;;;;;;28.21;51.90;95548.41;5133870;27;20054;-78
2022/08/05 10:19:15;;;;;;;22.38;8.02;;;;;;;28.36;52.97;95566.22;5129986;27;20038;-78
2022/08/05 10:21:41;;;;;;;14.55;8.48;;;;;;;28.41;50.61;95560.41;5113215;27;20035;-81
2022/08/05 10:24:11;;;;;;;14.30;8.18;;;;;;;28.60;50.47;95548.44;5114713;27;20046;-79
2022/08/05 10:26:39;;;;;;;15.23;8.57;;;;;;;28.42;50.30;95559.25;5115018;27;20051;-79
2022/08/05 10:29:06;;;;;;;16.10;8.38;;;;;;;28.26;51.37;95564.22;5102511;27;20039;-80
2022/08/05 10:31:32;;;;;;;12.73;8.40;;;;;;;28.50;50.96;95570.84;5131377;27;20416;-77
2022/08/05 10:33:58;;;;;;;17.95;8.25;;;;;;;28.94;48.67;95566.28;5115590;27;20039;-77
2022/08/05 10:36:25;;;;;;;12.75;8.35;;;;;;;29.14;49.31;95570.13;5114088;27;20043;-77
2022/08/05 10:38:55;;;;;;;12.70;7.57;;;;;;;29.65;48.32;95564.63;5126538;27;20036;-78
2022/08/05 10:41:30;;;;;;;16.85;7.78;;;;;;;29.83;46.45;95551.81;5128708;27;20039;-78
2022/08/05 10:44:02;;;;;;;16.80;8.10;;;;;;;29.97;46.49;95558.31;5132153;27;20039;-77
2022/08/05 10:46:48;;;;;;;14.07;7.68;;;;;;;30.19;45.85;95559.75;5131597;27;20038;-77
2022/08/05 10:49:14;;;;;;;18.60;8.23;;;;;;;30.06;44.12;95553.25;5125725;27;20043;-76
2022/08/05 10:51:56;;;;;;;18.40;7.40;;;;;;;30.10;44.79;95551.31;5098300;27;20488;-77
2022/08/05 10:54:23;;;;;;;15.65;8.85;;;;;;;30.54;43.91;95552.63;5126156;27;20036;-77
2022/08/05 10:56:54;;;;;;;14.55;7.63;;;;;;;30.93;42.71;95556.19;5131883;27;20043;-77
2022/08/05 10:59:30;;;;;;;17.13;7.57;;;;;;;31.06;42.84;95542.91;5104662;28;20040;-79
2022/08/05 11:02:11;;;;;;;14.30;7.30;;;;;;;31.36;41.53;95544.16;5112175;27;20035;-77
2022/08/05 11:04:47;;;;;;;14.70;6.95;;;;;;;31.93;41.63;95550.94;5130820;27;20043;-74
2022/08/05 11:07:17;;;;;;;12.02;7.13;;;;;;;32.05;40.67;95544.94;5105487;27;20050;-76
2022/08/05 11:09:48;;;;;;;15.98;7.53;;;;;;;32.53;38.93;95540.41;5122013;27;20043;-75
2022/08/05 11:12:33;;;;;;;12.95;7.03;;;;;;;32.51;39.83;95547.44;5119592;27;20047;-76
2022/08/05 11:15:08;;;;;;;12.48;7.55;;;;;;;32.32;39.27;95551.63;5130698;27;20092;-76
2022/08/05 11:17:38;;;;;;;13.48;7.10;;;;;;;32.48;39.45;95549.03;5113320;27;20108;-78
2022/08/05 11:20:06;;;;;;;13.90;6.97;;;;;;;32.87;39.29;95541.44;5102518;28;20040;-77
2022/08/05 11:22:47;;;;;;;12.88;7.30;;;;;;;33.10;37.77;95546.91;5128602;27;20611;-79
2022/08/05 11:25:42;;;;;;;14.15;7.20;;;;;;;33.57;36.49;95543.34;5132359;27;20414;-77
2022/08/05 11:28:10;;;;;;;14.43;6.63;;;;;;;33.18;37.73;95544.81;5105151;28;20119;-76
2022/08/05 11:30:54;;;;;;;13.85;6.65;;;;;;;33.30;36.70;95544.25;5105050;27;20043;-76
2022/08/05 11:33:53;;;;;;;12.95;6.65;;;;;;;32.81;38.16;95533.78;5117778;27;20039;-77
2022/08/05 11:36:40;;;;;;;10.55;6.72;;;;;;;33.26;37.22;95535.34;5126844;27;20515;-77
2022/08/05 11:39:07;;;;;;;10.85;7.10;;;;;;;32.49;37.56;95539.69;5128851;27;20135;-77